Lake Shore, Minnesota
Current Conditions -  °F | °C
As of 9:53 PM on Wednesday 22 Oct 2014 (Local Time) from KBRD Reporting Station
Overcast Overcast  
Wind Chill: 54°   Ceiling: 9000
Heat Index: 54°   Visibility: 10mi
Dew Point: 42°   Wind: 14mph
Humidity: 64%   Direction: 160°SSE
Pressure: 29.97"   Gusts: NA
Location:  46.5121°N, 94.2802°W
Report Text: KBRD 230253Z AUTO 16012KT 10SM FEW055 BKN090 OVC110 12/06 A2997 RMK AO2 SLP155 T01220056 58003
Loading
Personal Weather Stations






























Interactive Weather Map
Tropical Storm Tracking
New forecast layout! Learn more

10-Day Weather Forecast

Advertisements
Track Severe Weather on mobile